sensor_id;sensor_type;location;lat;lon;timestamp;temperature;humidity
1806;DHT22;901;48.142;11.516;2022-12-18T00:01:58;-2.50;99.90
1806;DHT22;901;48.142;11.516;2022-12-18T00:04:26;-2.50;99.90
1806;DHT22;901;48.142;11.516;2022-12-18T00:06:53;-2.60;99.90
1806;DHT22;901;48.142;11.516;2022-12-18T00:09:21;-2.60;99.90
1806;DHT22;901;48.142;11.516;2022-12-18T00:11:48;-2.80;99.90
1806;DHT22;901;48.142;11.516;2022-12-18T00:14:16;-2.90;99.90
1806;DHT22;901;48.142;11.516;2022-12-18T00:16:44;-2.90;99.90
1806;DHT22;901;48.142;11.516;2022-12-18T00:19:12;-3.00;99.90
1806;DHT22;901;48.142;11.516;2022-12-18T00:21:40;-3.20;99.90
1806;DHT22;901;48.142;11.516;2022-12-18T00:24:07;-3.20;99.90
1806;DHT22;901;48.142;11.516;2022-12-18T00:26:36;-3.30;99.90
1806;DHT22;901;48.142;11.516;2022-12-18T00:29:05;-3.20;99.90
1806;DHT22;901;48.142;11.516;2022-12-18T00:31:34;-3.20;99.90
1806;DHT22;901;48.142;11.516;2022-12-18T00:34:01;-3.00;99.90
1806;DHT22;901;48.142;11.516;2022-12-18T00:36:29;-2.90;99.90
1806;DHT22;901;48.142;11.516;2022-12-18T00:38:58;-2.90;99.90
1806;DHT22;901;48.142;11.516;2022-12-18T00:41:25;-2.90;99.90
1806;DHT22;901;48.142;11.516;2022-12-18T00:44:11;-3.10;99.90
1806;DHT22;901;48.142;11.516;2022-12-18T00:46:39;-3.20;99.90
1806;DHT22;901;48.142;11.516;2022-12-18T00:49:07;-3.30;99.90
1806;DHT22;901;48.142;11.516;2022-12-18T00:51:34;-3.40;99.90
1806;DHT22;901;48.142;11.516;2022-12-18T00:54:01;-3.40;99.90
1806;DHT22;901;48.142;11.516;2022-12-18T00:56:28;-3.50;99.90
1806;DHT22;901;48.142;11.516;2022-12-18T00:58:55;-3.50;99.90
1806;DHT22;901;48.142;11.516;2022-12-18T01:01:22;-3.50;99.90
1806;DHT22;901;48.142;11.516;2022-12-18T01:03:50;-3.60;99.90
1806;DHT22;901;48.142;11.516;2022-12-18T01:06:17;-3.60;99.90
1806;DHT22;901;48.142;11.516;2022-12-18T01:08:44;-3.50;99.90
1806;DHT22;901;48.142;11.516;2022-12-18T01:11:13;-3.50;99.90
1806;DHT22;901;48.142;11.516;2022-12-18T01:13:41;-3.40;99.90
1806;DHT22;901;48.142;11.516;2022-12-18T01:16:11;-3.40;99.90
1806;DHT22;901;48.142;11.516;2022-12-18T01:18:38;-3.20;99.90
1806;DHT22;901;48.142;11.516;2022-12-18T01:21:08;-3.20;99.90
1806;DHT22;901;48.142;11.516;2022-12-18T01:23:36;-3.20;99.90
1806;DHT22;901;48.142;11.516;2022-12-18T01:26:05;-3.30;99.90
1806;DHT22;901;48.142;11.516;2022-12-18T01:28:34;-3.30;99.90
1806;DHT22;901;48.142;11.516;2022-12-18T01:31:12;-3.20;99.90
1806;DHT22;901;48.142;11.516;2022-12-18T01:33:54;-3.20;99.90
1806;DHT22;901;48.142;11.516;2022-12-18T01:36:24;-3.10;99.90
1806;DHT22;901;48.142;11.516;2022-12-18T01:38:52;-3.10;99.90
1806;DHT22;901;48.142;11.516;2022-12-18T01:41:22;-3.10;99.90
1806;DHT22;901;48.142;11.516;2022-12-18T01:43:52;-3.10;99.90
1806;DHT22;901;48.142;11.516;2022-12-18T01:46:21;-3.00;99.90
1806;DHT22;901;48.142;11.516;2022-12-18T01:48:51;-3.00;99.90
1806;DHT22;901;48.142;11.516;2022-12-18T01:51:19;-3.20;99.90
1806;DHT22;901;48.142;11.516;2022-12-18T01:53:51;-3.20;99.90
1806;DHT22;901;48.142;11.516;2022-12-18T01:56:20;-3.20;99.90
1806;DHT22;901;48.142;11.516;2022-12-18T01:58:53;-3.30;99.90
1806;DHT22;901;48.142;11.516;2022-12-18T02:01:22;-3.40;99.90
1806;DHT22;901;48.142;11.516;2022-12-18T02:03:50;-3.40;99.90
1806;DHT22;901;48.142;11.516;2022-12-18T02:06:25;-3.50;99.90
1806;DHT22;901;48.142;11.516;2022-12-18T02:09:04;-3.40;99.90
1806;DHT22;901;48.142;11.516;2022-12-18T02:11:39;-3.40;99.90
1806;DHT22;901;48.142;11.516;2022-12-18T02:14:17;-3.30;99.90
1806;DHT22;901;48.142;11.516;2022-12-18T02:16:51;-3.40;99.90
1806;DHT22;901;48.142;11.516;2022-12-18T02:22:29;-3.40;99.90
1806;DHT22;901;48.142;11.516;2022-12-18T02:25:13;-3.40;99.90
1806;DHT22;901;48.142;11.516;2022-12-18T02:27:49;-3.50;99.90
1806;DHT22;901;48.142;11.516;2022-12-18T02:30:19;-3.50;99.90
1806;DHT22;901;48.142;11.516;2022-12-18T02:32:54;-3.50;99.90
1806;DHT22;901;48.142;11.516;2022-12-18T02:35:28;-3.40;99.90
1806;DHT22;901;48.142;11.516;2022-12-18T02:38:00;-3.30;99.90
1806;DHT22;901;48.142;11.516;2022-12-18T02:40:32;-3.20;99.90
1806;DHT22;901;48.142;11.516;2022-12-18T02:43:07;-3.20;99.90
1806;DHT22;901;48.142;11.516;2022-12-18T02:45:47;-3.10;99.90
1806;DHT22;901;48.142;11.516;2022-12-18T02:48:22;-3.10;99.90
1806;DHT22;901;48.142;11.516;2022-12-18T02:50:58;-3.00;99.90
1806;DHT22;901;48.142;11.516;2022-12-18T02:53:32;-3.10;99.90
1806;DHT22;901;48.142;11.516;2022-12-18T02:56:15;-3.10;99.90
1806;DHT22;901;48.142;11.516;2022-12-18T02:58:56;-3.00;99.90
1806;DHT22;901;48.142;11.516;2022-12-18T03:01:30;-3.00;99.90
1806;DHT22;901;48.142;11.516;2022-12-18T03:04:02;-2.90;99.90
1806;DHT22;901;48.142;11.516;2022-12-18T03:06:35;-3.00;99.90
1806;DHT22;901;48.142;11.516;2022-12-18T03:09:07;-3.10;99.90
1806;DHT22;901;48.142;11.516;2022-12-18T03:11:40;-3.10;99.90
1806;DHT22;901;48.142;11.516;2022-12-18T03:14:30;-3.30;99.90
1806;DHT22;901;48.142;11.516;2022-12-18T03:17:02;-3.30;99.90
1806;DHT22;901;48.142;11.516;2022-12-18T03:19:32;-3.30;99.90
1806;DHT22;901;48.142;11.516;2022-12-18T03:22:02;-3.30;99.90
1806;DHT22;901;48.142;11.516;2022-12-18T03:24:54;-3.30;99.90
1806;DHT22;901;48.142;11.516;2022-12-18T03:27:24;-3.30;99.90
1806;DHT22;901;48.142;11.516;2022-12-18T03:29:59;-3.40;99.90
1806;DHT22;901;48.142;11.516;2022-12-18T03:32:36;-3.40;99.90
1806;DHT22;901;48.142;11.516;2022-12-18T03:35:06;-3.40;99.90
1806;DHT22;901;48.142;11.516;2022-12-18T03:37:34;-3.50;99.90
1806;DHT22;901;48.142;11.516;2022-12-18T03:40:01;-3.40;99.90
1806;DHT22;901;48.142;11.516;2022-12-18T03:42:31;-3.40;99.90
1806;DHT22;901;48.142;11.516;2022-12-18T03:45:07;-3.30;99.90
1806;DHT22;901;48.142;11.516;2022-12-18T03:47:39;-3.40;99.90
1806;DHT22;901;48.142;11.516;2022-12-18T03:50:14;-3.40;99.90
1806;DHT22;901;48.142;11.516;2022-12-18T03:52:48;-3.40;99.90
1806;DHT22;901;48.142;11.516;2022-12-18T03:55:17;-3.40;99.90
1806;DHT22;901;48.142;11.516;2022-12-18T03:57:45;-3.30;99.90
1806;DHT22;901;48.142;11.516;2022-12-18T04:00:17;-3.20;99.90
1806;DHT22;901;48.142;11.516;2022-12-18T04:02:47;-3.20;99.90
1806;DHT22;901;48.142;11.516;2022-12-18T04:05:15;-3.30;99.90
1806;DHT22;901;48.142;11.516;2022-12-18T04:07:45;-3.20;99.90
1806;DHT22;901;48.142;11.516;2022-12-18T04:10:14;-3.20;99.90
1806;DHT22;901;48.142;11.516;2022-12-18T04:12:42;-3.10;99.90
1806;DHT22;901;48.142;11.516;2022-12-18T04:15:10;-3.30;99.90
1806;DHT22;901;48.142;11.516;2022-12-18T04:17:42;-3.20;99.90
1806;DHT22;901;48.142;11.516;2022-12-18T04:20:11;-3.20;99.90
1806;DHT22;901;48.142;11.516;2022-12-18T04:22:38;-3.30;99.90
1806;DHT22;901;48.142;11.516;2022-12-18T04:25:05;-3.20;99.90
1806;DHT22;901;48.142;11.516;2022-12-18T04:27:32;-3.10;99.90
1806;DHT22;901;48.142;11.516;2022-12-18T04:29:59;-2.90;99.90
1806;DHT22;901;48.142;11.516;2022-12-18T04:32:26;-2.90;99.90
1806;DHT22;901;48.142;11.516;2022-12-18T04:34:54;-3.00;99.90
1806;DHT22;901;48.142;11.516;2022-12-18T04:37:21;-3.20;99.90
1806;DHT22;901;48.142;11.516;2022-12-18T04:39:48;-3.30;99.90
1806;DHT22;901;48.142;11.516;2022-12-18T04:42:15;-3.10;99.90
1806;DHT22;901;48.142;11.516;2022-12-18T04:44:41;-3.10;99.90
1806;DHT22;901;48.142;11.516;2022-12-18T04:47:08;-3.00;99.90
1806;DHT22;901;48.142;11.516;2022-12-18T04:49:35;-3.10;99.90
1806;DHT22;901;48.142;11.516;2022-12-18T04:52:03;-3.10;99.90
1806;DHT22;901;48.142;11.516;2022-12-18T04:54:34;-3.00;99.90
1806;DHT22;901;48.142;11.516;2022-12-18T04:57:01;-3.00;99.90
1806;DHT22;901;48.142;11.516;2022-12-18T04:59:28;-3.10;99.90
1806;DHT22;901;48.142;11.516;2022-12-18T05:01:54;-3.20;99.90
1806;DHT22;901;48.142;11.516;2022-12-18T05:04:21;-3.10;99.90
1806;DHT22;901;48.142;11.516;2022-12-18T05:06:48;-3.10;99.90
1806;DHT22;901;48.142;11.516;2022-12-18T05:09:16;-2.90;99.90
1806;DHT22;901;48.142;11.516;2022-12-18T05:11:43;-2.90;99.90
1806;DHT22;901;48.142;11.516;2022-12-18T05:14:10;-3.00;99.90
1806;DHT22;901;48.142;11.516;2022-12-18T05:16:40;-3.10;99.90
1806;DHT22;901;48.142;11.516;2022-12-18T05:19:06;-3.20;99.90
1806;DHT22;901;48.142;11.516;2022-12-18T05:21:34;-3.30;99.90
1806;DHT22;901;48.142;11.516;2022-12-18T05:24:00;-3.30;99.90
1806;DHT22;901;48.142;11.516;2022-12-18T05:26:29;-3.30;99.90
1806;DHT22;901;48.142;11.516;2022-12-18T05:28:56;-3.40;99.90
1806;DHT22;901;48.142;11.516;2022-12-18T05:31:23;-3.40;99.90
1806;DHT22;901;48.142;11.516;2022-12-18T05:33:50;-3.30;99.90
1806;DHT22;901;48.142;11.516;2022-12-18T05:36:16;-3.20;99.90
1806;DHT22;901;48.142;11.516;2022-12-18T05:38:43;-3.10;99.90
1806;DHT22;901;48.142;11.516;2022-12-18T05:41:10;-3.10;99.90
1806;DHT22;901;48.142;11.516;2022-12-18T05:43:39;-3.00;99.90
1806;DHT22;901;48.142;11.516;2022-12-18T05:46:09;-3.20;99.90
1806;DHT22;901;48.142;11.516;2022-12-18T05:48:37;-3.20;99.90
1806;DHT22;901;48.142;11.516;2022-12-18T05:51:06;-3.30;99.90
1806;DHT22;901;48.142;11.516;2022-12-18T05:53:33;-3.40;99.90
1806;DHT22;901;48.142;11.516;2022-12-18T05:56:01;-3.40;99.90
1806;DHT22;901;48.142;11.516;2022-12-18T05:58:29;-3.30;99.90
1806;DHT22;901;48.142;11.516;2022-12-18T06:00:57;-3.20;99.90
1806;DHT22;901;48.142;11.516;2022-12-18T06:03:24;-3.10;99.90
1806;DHT22;901;48.142;11.516;2022-12-18T06:05:51;-3.20;99.90
1806;DHT22;901;48.142;11.516;2022-12-18T06:08:18;-3.20;99.90
1806;DHT22;901;48.142;11.516;2022-12-18T06:10:50;-3.30;99.90
1806;DHT22;901;48.142;11.516;2022-12-18T06:13:18;-3.30;99.90
1806;DHT22;901;48.142;11.516;2022-12-18T06:15:45;-3.20;99.90
1806;DHT22;901;48.142;11.516;2022-12-18T06:18:13;-3.40;99.90
1806;DHT22;901;48.142;11.516;2022-12-18T06:20:40;-3.30;99.90
1806;DHT22;901;48.142;11.516;2022-12-18T06:23:07;-3.40;99.90
1806;DHT22;901;48.142;11.516;2022-12-18T06:25:37;-3.40;99.90
1806;DHT22;901;48.142;11.516;2022-12-18T06:28:04;-3.50;99.90
1806;DHT22;901;48.142;11.516;2022-12-18T06:30:31;-3.50;99.90
1806;DHT22;901;48.142;11.516;2022-12-18T06:32:58;-3.30;99.90
1806;DHT22;901;48.142;11.516;2022-12-18T06:35:26;-3.30;99.90
1806;DHT22;901;48.142;11.516;2022-12-18T06:37:53;-3.10;99.90
1806;DHT22;901;48.142;11.516;2022-12-18T06:40:20;-3.10;99.90
1806;DHT22;901;48.142;11.516;2022-12-18T06:42:46;-3.20;99.90
1806;DHT22;901;48.142;11.516;2022-12-18T06:45:16;-3.10;99.90
1806;DHT22;901;48.142;11.516;2022-12-18T06:47:43;-3.30;99.90
1806;DHT22;901;48.142;11.516;2022-12-18T06:50:10;-3.40;99.90
1806;DHT22;901;48.142;11.516;2022-12-18T06:52:39;-3.40;99.90
1806;DHT22;901;48.142;11.516;2022-12-18T06:55:07;-3.50;99.90
1806;DHT22;901;48.142;11.516;2022-12-18T06:57:35;-3.40;99.90
1806;DHT22;901;48.142;11.516;2022-12-18T07:00:03;-3.30;99.90
1806;DHT22;901;48.142;11.516;2022-12-18T07:02:30;-3.10;99.90
1806;DHT22;901;48.142;11.516;2022-12-18T07:04:57;-3.00;99.90
1806;DHT22;901;48.142;11.516;2022-12-18T07:07:24;-3.00;99.90
1806;DHT22;901;48.142;11.516;2022-12-18T07:09:52;-3.20;99.90
1806;DHT22;901;48.142;11.516;2022-12-18T07:12:19;-3.30;99.90
1806;DHT22;901;48.142;11.516;2022-12-18T07:14:46;-3.20;99.90
1806;DHT22;901;48.142;11.516;2022-12-18T07:17:13;-3.40;99.90
1806;DHT22;901;48.142;11.516;2022-12-18T07:19:39;-3.60;99.90
1806;DHT22;901;48.142;11.516;2022-12-18T07:22:06;-3.70;99.90
1806;DHT22;901;48.142;11.516;2022-12-18T07:24:33;-3.50;99.90
1806;DHT22;901;48.142;11.516;2022-12-18T07:27:01;-3.40;99.90
1806;DHT22;901;48.142;11.516;2022-12-18T07:29:29;-3.30;99.90
1806;DHT22;901;48.142;11.516;2022-12-18T07:31:56;-3.20;99.90
1806;DHT22;901;48.142;11.516;2022-12-18T07:34:23;-3.10;99.90
1806;DHT22;901;48.142;11.516;2022-12-18T07:36:49;-3.00;99.90
1806;DHT22;901;48.142;11.516;2022-12-18T07:39:16;-3.10;99.90
1806;DHT22;901;48.142;11.516;2022-12-18T07:41:43;-3.00;99.90
1806;DHT22;901;48.142;11.516;2022-12-18T07:44:31;-3.00;99.90
1806;DHT22;901;48.142;11.516;2022-12-18T07:46:58;-2.80;99.90
1806;DHT22;901;48.142;11.516;2022-12-18T07:49:25;-2.90;99.90
1806;DHT22;901;48.142;11.516;2022-12-18T07:51:54;-3.00;99.90
1806;DHT22;901;48.142;11.516;2022-12-18T07:54:21;-3.10;99.90
1806;DHT22;901;48.142;11.516;2022-12-18T07:56:48;-3.20;99.90
1806;DHT22;901;48.142;11.516;2022-12-18T07:59:15;-3.30;99.90
1806;DHT22;901;48.142;11.516;2022-12-18T08:01:43;-3.40;99.90
1806;DHT22;901;48.142;11.516;2022-12-18T08:04:10;-3.50;99.90
1806;DHT22;901;48.142;11.516;2022-12-18T08:06:37;-3.50;99.90
1806;DHT22;901;48.142;11.516;2022-12-18T08:09:04;-3.40;99.90
1806;DHT22;901;48.142;11.516;2022-12-18T08:11:31;-3.50;99.90
1806;DHT22;901;48.142;11.516;2022-12-18T08:13:58;-3.50;99.90
1806;DHT22;901;48.142;11.516;2022-12-18T08:16:25;-3.40;99.90
1806;DHT22;901;48.142;11.516;2022-12-18T08:18:53;-3.30;99.90
1806;DHT22;901;48.142;11.516;2022-12-18T08:21:22;-3.20;99.90
1806;DHT22;901;48.142;11.516;2022-12-18T08:23:50;-3.10;99.90
1806;DHT22;901;48.142;11.516;2022-12-18T08:26:17;-3.10;99.90
1806;DHT22;901;48.142;11.516;2022-12-18T08:28:44;-3.00;99.90
1806;DHT22;901;48.142;11.516;2022-12-18T08:31:11;-2.90;99.90
1806;DHT22;901;48.142;11.516;2022-12-18T08:33:38;-2.80;99.90
1806;DHT22;901;48.142;11.516;2022-12-18T08:36:07;-2.80;99.90
1806;DHT22;901;48.142;11.516;2022-12-18T08:38:34;-2.70;99.90
1806;DHT22;901;48.142;11.516;2022-12-18T08:41:04;-2.50;99.90
1806;DHT22;901;48.142;11.516;2022-12-18T08:43:33;-2.40;99.90
1806;DHT22;901;48.142;11.516;2022-12-18T08:46:18;-2.30;99.90
1806;DHT22;901;48.142;11.516;2022-12-18T08:48:46;-2.40;99.90
1806;DHT22;901;48.142;11.516;2022-12-18T08:51:15;-2.30;99.90
1806;DHT22;901;48.142;11.516;2022-12-18T08:53:43;-2.70;99.90
1806;DHT22;901;48.142;11.516;2022-12-18T08:56:11;-2.80;99.90
1806;DHT22;901;48.142;11.516;2022-12-18T08:58:38;-2.90;99.90
1806;DHT22;901;48.142;11.516;2022-12-18T09:01:06;-2.90;99.90
1806;DHT22;901;48.142;11.516;2022-12-18T09:03:34;-2.80;99.90
1806;DHT22;901;48.142;11.516;2022-12-18T09:06:01;-2.60;99.90
1806;DHT22;901;48.142;11.516;2022-12-18T09:08:30;-2.60;99.90
1806;DHT22;901;48.142;11.516;2022-12-18T09:11:04;-2.50;99.90
1806;DHT22;901;48.142;11.516;2022-12-18T09:13:31;-2.60;99.90
1806;DHT22;901;48.142;11.516;2022-12-18T09:15:58;-2.70;99.90
1806;DHT22;901;48.142;11.516;2022-12-18T09:18:25;-2.70;99.90
1806;DHT22;901;48.142;11.516;2022-12-18T09:20:52;-2.60;99.90
1806;DHT22;901;48.142;11.516;2022-12-18T09:23:19;-2.60;99.90
1806;DHT22;901;48.142;11.516;2022-12-18T09:25:48;-2.60;99.90
1806;DHT22;901;48.142;11.516;2022-12-18T09:28:16;-2.40;99.90
1806;DHT22;901;48.142;11.516;2022-12-18T09:30:45;-2.60;99.90
1806;DHT22;901;48.142;11.516;2022-12-18T09:33:12;-2.50;99.90
1806;DHT22;901;48.142;11.516;2022-12-18T09:35:40;-2.40;99.90
1806;DHT22;901;48.142;11.516;2022-12-18T09:38:08;-2.10;99.90
1806;DHT22;901;48.142;11.516;2022-12-18T09:40:41;-1.90;99.90
1806;DHT22;901;48.142;11.516;2022-12-18T09:43:15;-2.20;99.90
1806;DHT22;901;48.142;11.516;2022-12-18T09:45:47;-2.20;99.90
1806;DHT22;901;48.142;11.516;2022-12-18T09:48:20;-2.10;99.90
1806;DHT22;901;48.142;11.516;2022-12-18T09:50:48;-2.00;99.90
1806;DHT22;901;48.142;11.516;2022-12-18T09:53:21;-2.00;99.90
1806;DHT22;901;48.142;11.516;2022-12-18T09:55:52;-1.90;99.90
1806;DHT22;901;48.142;11.516;2022-12-18T09:58:26;-1.70;99.90
1806;DHT22;901;48.142;11.516;2022-12-18T10:00:55;-1.60;99.90
1806;DHT22;901;48.142;11.516;2022-12-18T10:03:22;-1.70;99.90
1806;DHT22;901;48.142;11.516;2022-12-18T10:05:58;-1.40;99.90
1806;DHT22;901;48.142;11.516;2022-12-18T10:08:35;-1.10;99.90
1806;DHT22;901;48.142;11.516;2022-12-18T10:11:18;-1.00;99.90
1806;DHT22;901;48.142;11.516;2022-12-18T10:13:52;-1.40;99.90
1806;DHT22;901;48.142;11.516;2022-12-18T10:16:29;-1.30;99.90
1806;DHT22;901;48.142;11.516;2022-12-18T10:19:09;-1.20;99.90
1806;DHT22;901;48.142;11.516;2022-12-18T10:21:42;-1.20;99.90
1806;DHT22;901;48.142;11.516;2022-12-18T10:24:19;-1.10;99.90
1806;DHT22;901;48.142;11.516;2022-12-18T10:26:47;-1.40;99.90
1806;DHT22;901;48.142;11.516;2022-12-18T10:29:16;-1.20;99.90
1806;DHT22;901;48.142;11.516;2022-12-18T10:31:43;-1.40;99.90
1806;DHT22;901;48.142;11.516;2022-12-18T10:34:10;-1.30;99.90
1806;DHT22;901;48.142;11.516;2022-12-18T10:36:40;-1.50;99.90
1806;DHT22;901;48.142;11.516;2022-12-18T10:39:17;-1.40;99.90
1806;DHT22;901;48.142;11.516;2022-12-18T10:41:45;-1.60;99.90
1806;DHT22;901;48.142;11.516;2022-12-18T10:44:17;-1.70;99.90
1806;DHT22;901;48.142;11.516;2022-12-18T10:46:46;-1.50;99.90
1806;DHT22;901;48.142;11.516;2022-12-18T10:49:25;-1.50;99.90
1806;DHT22;901;48.142;11.516;2022-12-18T10:52:07;-1.60;99.90
1806;DHT22;901;48.142;11.516;2022-12-18T10:54:38;-1.60;99.90
1806;DHT22;901;48.142;11.516;2022-12-18T10:57:16;-1.70;99.90
1806;DHT22;901;48.142;11.516;2022-12-18T10:59:54;-1.80;99.90
1806;DHT22;901;48.142;11.516;2022-12-18T11:02:28;-1.80;99.90
1806;DHT22;901;48.142;11.516;2022-12-18T11:04:56;-2.10;99.90
1806;DHT22;901;48.142;11.516;2022-12-18T11:07:22;-1.90;99.90
1806;DHT22;901;48.142;11.516;2022-12-18T11:10:00;-2.00;99.90
1806;DHT22;901;48.142;11.516;2022-12-18T11:12:28;-2.00;99.90
1806;DHT22;901;48.142;11.516;2022-12-18T11:14:57;-2.10;99.90
1806;DHT22;901;48.142;11.516;2022-12-18T11:17:28;-1.80;99.90
1806;DHT22;901;48.142;11.516;2022-12-18T11:19:57;-1.60;99.90
1806;DHT22;901;48.142;11.516;2022-12-18T11:22:26;-1.70;99.90
1806;DHT22;901;48.142;11.516;2022-12-18T11:24:56;-1.60;99.90
1806;DHT22;901;48.142;11.516;2022-12-18T11:27:23;-1.60;99.90
1806;DHT22;901;48.142;11.516;2022-12-18T11:29:51;-1.80;99.90
1806;DHT22;901;48.142;11.516;2022-12-18T11:32:32;-1.70;99.90
1806;DHT22;901;48.142;11.516;2022-12-18T11:35:04;-1.80;99.90
1806;DHT22;901;48.142;11.516;2022-12-18T11:37:38;-1.60;99.90
1806;DHT22;901;48.142;11.516;2022-12-18T11:40:11;-1.90;99.90
1806;DHT22;901;48.142;11.516;2022-12-18T11:42:46;-1.80;99.90
1806;DHT22;901;48.142;11.516;2022-12-18T11:45:27;-2.00;99.90
1806;DHT22;901;48.142;11.516;2022-12-18T11:47:59;-2.00;99.90
1806;DHT22;901;48.142;11.516;2022-12-18T11:50:31;-1.70;99.90
1806;DHT22;901;48.142;11.516;2022-12-18T11:52:59;-1.40;99.90
1806;DHT22;901;48.142;11.516;2022-12-18T11:55:32;-1.10;99.90
1806;DHT22;901;48.142;11.516;2022-12-18T11:58:10;-1.20;99.90
1806;DHT22;901;48.142;11.516;2022-12-18T12:00:46;-0.70;99.90
1806;DHT22;901;48.142;11.516;2022-12-18T12:03:27;-0.50;99.90
1806;DHT22;901;48.142;11.516;2022-12-18T12:06:12;-0.30;99.90
1806;DHT22;901;48.142;11.516;2022-12-18T12:08:54;-0.10;99.90
1806;DHT22;901;48.142;11.516;2022-12-18T12:11:31;-0.30;99.90
1806;DHT22;901;48.142;11.516;2022-12-18T12:14:16;-0.40;99.90
1806;DHT22;901;48.142;11.516;2022-12-18T12:16:51;-0.20;99.90
1806;DHT22;901;48.142;11.516;2022-12-18T12:19:35;-0.20;99.90
1806;DHT22;901;48.142;11.516;2022-12-18T12:22:10;-0.10;99.90
1806;DHT22;901;48.142;11.516;2022-12-18T12:24:51;-0.50;99.90
1806;DHT22;901;48.142;11.516;2022-12-18T12:27:30;-0.80;99.90
1806;DHT22;901;48.142;11.516;2022-12-18T12:30:04;-1.10;99.90
1806;DHT22;901;48.142;11.516;2022-12-18T12:32:49;-1.40;99.90
1806;DHT22;901;48.142;11.516;2022-12-18T12:35:29;-1.40;99.90
1806;DHT22;901;48.142;11.516;2022-12-18T12:38:06;-1.20;99.90
1806;DHT22;901;48.142;11.516;2022-12-18T12:40:37;-1.30;99.90
1806;DHT22;901;48.142;11.516;2022-12-18T12:43:20;-1.20;99.90
1806;DHT22;901;48.142;11.516;2022-12-18T12:45:50;-1.00;99.90
1806;DHT22;901;48.142;11.516;2022-12-18T12:48:33;0.10;99.90
1806;DHT22;901;48.142;11.516;2022-12-18T12:51:07;-0.60;99.90
1806;DHT22;901;48.142;11.516;2022-12-18T12:53:36;-0.50;99.90
1806;DHT22;901;48.142;11.516;2022-12-18T12:56:04;-0.40;99.90
1806;DHT22;901;48.142;11.516;2022-12-18T12:58:38;-0.20;99.90
1806;DHT22;901;48.142;11.516;2022-12-18T13:01:13;0.00;99.90
1806;DHT22;901;48.142;11.516;2022-12-18T13:03:48;0.10;99.90
1806;DHT22;901;48.142;11.516;2022-12-18T13:06:29;0.20;99.90
1806;DHT22;901;48.142;11.516;2022-12-18T13:09:00;0.30;99.90
1806;DHT22;901;48.142;11.516;2022-12-18T13:11:34;0.20;99.90
1806;DHT22;901;48.142;11.516;2022-12-18T13:14:24;0.40;99.90
1806;DHT22;901;48.142;11.516;2022-12-18T13:17:16;0.30;99.90
1806;DHT22;901;48.142;11.516;2022-12-18T13:19:44;0.40;99.90
1806;DHT22;901;48.142;11.516;2022-12-18T13:22:23;0.40;99.90
1806;DHT22;901;48.142;11.516;2022-12-18T13:24:50;0.50;99.90
1806;DHT22;901;48.142;11.516;2022-12-18T13:30:41;0.40;99.90
1806;DHT22;901;48.142;11.516;2022-12-18T13:36:30;0.30;99.90
1806;DHT22;901;48.142;11.516;2022-12-18T13:39:21;0.00;99.90
1806;DHT22;901;48.142;11.516;2022-12-18T13:41:51;-0.70;99.90
1806;DHT22;901;48.142;11.516;2022-12-18T13:44:25;-1.10;99.90
1806;DHT22;901;48.142;11.516;2022-12-18T13:46:54;-1.10;99.90
1806;DHT22;901;48.142;11.516;2022-12-18T13:49:24;-1.30;99.90
1806;DHT22;901;48.142;11.516;2022-12-18T13:51:54;-1.40;99.90
1806;DHT22;901;48.142;11.516;2022-12-18T13:54:27;-1.40;99.90
1806;DHT22;901;48.142;11.516;2022-12-18T13:56:56;-1.70;99.90
1806;DHT22;901;48.142;11.516;2022-12-18T13:59:24;-1.70;99.90
1806;DHT22;901;48.142;11.516;2022-12-18T14:01:53;-1.80;99.90
1806;DHT22;901;48.142;11.516;2022-12-18T14:04:26;-1.80;99.90
1806;DHT22;901;48.142;11.516;2022-12-18T14:06:57;-2.00;99.90
1806;DHT22;901;48.142;11.516;2022-12-18T14:09:28;-2.00;99.90
1806;DHT22;901;48.142;11.516;2022-12-18T14:11:56;-1.80;99.90
1806;DHT22;901;48.142;11.516;2022-12-18T14:14:46;-1.70;99.90
1806;DHT22;901;48.142;11.516;2022-12-18T14:17:14;-1.70;99.90
1806;DHT22;901;48.142;11.516;2022-12-18T14:19:43;-1.60;99.90
1806;DHT22;901;48.142;11.516;2022-12-18T14:22:18;-1.50;99.90
1806;DHT22;901;48.142;11.516;2022-12-18T14:24:46;-1.50;99.90
1806;DHT22;901;48.142;11.516;2022-12-18T14:27:22;-1.50;99.90
1806;DHT22;901;48.142;11.516;2022-12-18T14:29:49;-1.40;99.90
1806;DHT22;901;48.142;11.516;2022-12-18T14:32:17;-1.30;99.90
1806;DHT22;901;48.142;11.516;2022-12-18T14:34:45;-1.30;99.90
1806;DHT22;901;48.142;11.516;2022-12-18T14:37:14;-1.60;99.90
1806;DHT22;901;48.142;11.516;2022-12-18T14:39:53;-2.10;99.90
1806;DHT22;901;48.142;11.516;2022-12-18T14:42:20;-2.10;99.90
1806;DHT22;901;48.142;11.516;2022-12-18T14:44:47;-2.20;99.90
1806;DHT22;901;48.142;11.516;2022-12-18T14:47:15;-2.30;99.90
1806;DHT22;901;48.142;11.516;2022-12-18T14:49:42;-2.20;99.90
1806;DHT22;901;48.142;11.516;2022-12-18T14:52:19;-2.10;99.90
1806;DHT22;901;48.142;11.516;2022-12-18T14:54:47;-2.20;99.90
1806;DHT22;901;48.142;11.516;2022-12-18T14:57:20;-2.20;99.90
1806;DHT22;901;48.142;11.516;2022-12-18T14:59:48;-2.20;99.90
1806;DHT22;901;48.142;11.516;2022-12-18T15:02:19;-2.20;99.90
1806;DHT22;901;48.142;11.516;2022-12-18T15:04:53;-2.20;99.90
1806;DHT22;901;48.142;11.516;2022-12-18T15:07:26;-2.30;99.90
1806;DHT22;901;48.142;11.516;2022-12-18T15:10:07;-2.30;99.90
1806;DHT22;901;48.142;11.516;2022-12-18T15:12:40;-2.20;99.90
1806;DHT22;901;48.142;11.516;2022-12-18T15:18:13;-2.20;99.90
1806;DHT22;901;48.142;11.516;2022-12-18T15:20:43;-2.10;99.90
1806;DHT22;901;48.142;11.516;2022-12-18T15:23:18;-2.10;99.90
1806;DHT22;901;48.142;11.516;2022-12-18T15:25:47;-2.10;99.90
1806;DHT22;901;48.142;11.516;2022-12-18T15:28:20;-2.20;99.90
1806;DHT22;901;48.142;11.516;2022-12-18T15:31:05;-2.20;99.90
1806;DHT22;901;48.142;11.516;2022-12-18T15:33:34;-2.20;99.90
1806;DHT22;901;48.142;11.516;2022-12-18T15:36:02;-2.40;99.90
1806;DHT22;901;48.142;11.516;2022-12-18T15:38:30;-2.40;99.90
1806;DHT22;901;48.142;11.516;2022-12-18T15:40:57;-2.60;99.90
1806;DHT22;901;48.142;11.516;2022-12-18T15:43:25;-2.70;99.90
1806;DHT22;901;48.142;11.516;2022-12-18T15:46:03;-2.70;99.90
1806;DHT22;901;48.142;11.516;2022-12-18T15:48:31;-2.80;99.90
1806;DHT22;901;48.142;11.516;2022-12-18T15:50:58;-2.80;99.90
1806;DHT22;901;48.142;11.516;2022-12-18T15:53:27;-2.90;99.90
1806;DHT22;901;48.142;11.516;2022-12-18T15:55:55;-2.80;99.90
1806;DHT22;901;48.142;11.516;2022-12-18T15:58:40;-2.90;99.90
1806;DHT22;901;48.142;11.516;2022-12-18T16:01:09;-2.80;99.90
1806;DHT22;901;48.142;11.516;2022-12-18T16:03:36;-2.70;99.90
1806;DHT22;901;48.142;11.516;2022-12-18T16:06:03;-2.70;99.90
1806;DHT22;901;48.142;11.516;2022-12-18T16:08:30;-2.80;99.90
1806;DHT22;901;48.142;11.516;2022-12-18T16:10:57;-2.70;99.90
1806;DHT22;901;48.142;11.516;2022-12-18T16:13:24;-2.70;99.90
1806;DHT22;901;48.142;11.516;2022-12-18T16:15:53;-2.60;99.90
1806;DHT22;901;48.142;11.516;2022-12-18T16:18:19;-2.60;99.90
1806;DHT22;901;48.142;11.516;2022-12-18T16:20:46;-2.60;99.90
1806;DHT22;901;48.142;11.516;2022-12-18T16:23:13;-2.60;99.90
1806;DHT22;901;48.142;11.516;2022-12-18T16:25:41;-2.60;99.90
1806;DHT22;901;48.142;11.516;2022-12-18T16:28:08;-2.80;99.90
1806;DHT22;901;48.142;11.516;2022-12-18T16:30:35;-2.70;99.90
1806;DHT22;901;48.142;11.516;2022-12-18T16:33:03;-2.70;99.90
1806;DHT22;901;48.142;11.516;2022-12-18T16:35:30;-2.70;99.90
1806;DHT22;901;48.142;11.516;2022-12-18T16:37:57;-2.70;99.90